sensor_id;sensor_type;location;lat;lon;timestamp;temperature;humidity
49242;DHT22;35079;52.704;13.814;2023-02-13T00:01:29;7.10;99.90
49242;DHT22;35079;52.704;13.814;2023-02-13T00:03:54;7.20;99.90
49242;DHT22;35079;52.704;13.814;2023-02-13T00:06:20;7.10;99.90
49242;DHT22;35079;52.704;13.814;2023-02-13T00:08:46;7.00;99.90
49242;DHT22;35079;52.704;13.814;2023-02-13T00:11:12;7.00;99.90
49242;DHT22;35079;52.704;13.814;2023-02-13T00:13:37;6.90;99.90
49242;DHT22;35079;52.704;13.814;2023-02-13T00:16:04;6.90;99.90
49242;DHT22;35079;52.704;13.814;2023-02-13T00:18:34;6.90;99.90
49242;DHT22;35079;52.704;13.814;2023-02-13T00:21:06;6.90;99.90
49242;DHT22;35079;52.704;13.814;2023-02-13T00:23:33;6.90;99.90
49242;DHT22;35079;52.704;13.814;2023-02-13T00:26:00;6.90;99.90
49242;DHT22;35079;52.704;13.814;2023-02-13T00:28:26;7.00;99.90
49242;DHT22;35079;52.704;13.814;2023-02-13T00:30:52;6.80;99.90
49242;DHT22;35079;52.704;13.814;2023-02-13T00:33:18;6.80;99.90
49242;DHT22;35079;52.704;13.814;2023-02-13T00:35:43;6.80;99.90
49242;DHT22;35079;52.704;13.814;2023-02-13T00:38:09;6.80;99.90
49242;DHT22;35079;52.704;13.814;2023-02-13T00:40:35;6.70;99.90
49242;DHT22;35079;52.704;13.814;2023-02-13T00:43:00;6.80;99.90
49242;DHT22;35079;52.704;13.814;2023-02-13T00:45:26;6.80;99.90
49242;DHT22;35079;52.704;13.814;2023-02-13T00:47:51;7.00;99.90
49242;DHT22;35079;52.704;13.814;2023-02-13T00:50:17;6.80;99.90
49242;DHT22;35079;52.704;13.814;2023-02-13T00:52:43;6.80;99.90
49242;DHT22;35079;52.704;13.814;2023-02-13T00:55:08;6.70;99.90
49242;DHT22;35079;52.704;13.814;2023-02-13T00:57:34;6.70;99.90
49242;DHT22;35079;52.704;13.814;2023-02-13T00:59:59;6.90;99.90
49242;DHT22;35079;52.704;13.814;2023-02-13T01:02:25;6.70;99.90
49242;DHT22;35079;52.704;13.814;2023-02-13T01:04:51;6.80;99.90
49242;DHT22;35079;52.704;13.814;2023-02-13T01:07:16;6.60;99.90
49242;DHT22;35079;52.704;13.814;2023-02-13T01:09:42;6.70;99.90
49242;DHT22;35079;52.704;13.814;2023-02-13T01:12:08;6.60;99.90
49242;DHT22;35079;52.704;13.814;2023-02-13T01:14:34;6.80;99.90
49242;DHT22;35079;52.704;13.814;2023-02-13T01:16:59;6.70;99.90
49242;DHT22;35079;52.704;13.814;2023-02-13T01:19:25;6.80;99.90
49242;DHT22;35079;52.704;13.814;2023-02-13T01:21:51;6.80;99.90
49242;DHT22;35079;52.704;13.814;2023-02-13T01:24:16;6.60;99.90
49242;DHT22;35079;52.704;13.814;2023-02-13T01:26:42;6.60;99.90
49242;DHT22;35079;52.704;13.814;2023-02-13T01:29:10;6.60;99.90
49242;DHT22;35079;52.704;13.814;2023-02-13T01:31:36;6.60;99.90
49242;DHT22;35079;52.704;13.814;2023-02-13T01:34:02;6.50;99.90
49242;DHT22;35079;52.704;13.814;2023-02-13T01:36:27;6.50;99.90
49242;DHT22;35079;52.704;13.814;2023-02-13T01:38:55;6.60;99.90
49242;DHT22;35079;52.704;13.814;2023-02-13T01:41:22;6.50;99.90
49242;DHT22;35079;52.704;13.814;2023-02-13T01:43:52;6.50;99.90
49242;DHT22;35079;52.704;13.814;2023-02-13T01:46:27;6.50;99.90
49242;DHT22;35079;52.704;13.814;2023-02-13T01:48:57;6.50;99.90
49242;DHT22;35079;52.704;13.814;2023-02-13T01:51:28;6.50;99.90
49242;DHT22;35079;52.704;13.814;2023-02-13T01:54:00;6.50;99.90
49242;DHT22;35079;52.704;13.814;2023-02-13T01:56:34;6.60;99.90
49242;DHT22;35079;52.704;13.814;2023-02-13T01:59:08;6.50;99.90
49242;DHT22;35079;52.704;13.814;2023-02-13T02:01:35;6.50;99.90
49242;DHT22;35079;52.704;13.814;2023-02-13T02:04:20;6.50;99.90
49242;DHT22;35079;52.704;13.814;2023-02-13T02:06:59;6.50;99.90
49242;DHT22;35079;52.704;13.814;2023-02-13T02:09:29;6.50;99.90
49242;DHT22;35079;52.704;13.814;2023-02-13T02:12:06;6.60;99.90
49242;DHT22;35079;52.704;13.814;2023-02-13T02:14:34;6.50;99.90
49242;DHT22;35079;52.704;13.814;2023-02-13T02:17:00;6.50;99.90
49242;DHT22;35079;52.704;13.814;2023-02-13T02:22:04;6.50;99.90
49242;DHT22;35079;52.704;13.814;2023-02-13T02:27:54;6.50;99.90
49242;DHT22;35079;52.704;13.814;2023-02-13T02:33:46;6.40;99.90
49242;DHT22;35079;52.704;13.814;2023-02-13T02:45:03;6.40;99.90
49242;DHT22;35079;52.704;13.814;2023-02-13T02:53:12;6.40;99.90
49242;DHT22;35079;52.704;13.814;2023-02-13T02:55:50;6.50;99.90
49242;DHT22;35079;52.704;13.814;2023-02-13T02:58:20;6.30;99.90
49242;DHT22;35079;52.704;13.814;2023-02-13T03:01:11;6.30;99.90
49242;DHT22;35079;52.704;13.814;2023-02-13T03:03:57;6.30;99.90
49242;DHT22;35079;52.704;13.814;2023-02-13T03:07:00;6.30;99.90
49242;DHT22;35079;52.704;13.814;2023-02-13T03:09:38;6.30;99.90
49242;DHT22;35079;52.704;13.814;2023-02-13T03:12:26;6.30;99.90
49242;DHT22;35079;52.704;13.814;2023-02-13T03:15:13;6.20;99.90
49242;DHT22;35079;52.704;13.814;2023-02-13T03:17:38;6.20;99.90
49242;DHT22;35079;52.704;13.814;2023-02-13T03:23:46;6.20;99.90
49242;DHT22;35079;52.704;13.814;2023-02-13T03:26:22;6.20;99.90
49242;DHT22;35079;52.704;13.814;2023-02-13T03:29:48;6.10;99.90
49242;DHT22;35079;52.704;13.814;2023-02-13T03:32:27;6.20;99.90
49242;DHT22;35079;52.704;13.814;2023-02-13T03:38:11;6.20;99.90
49242;DHT22;35079;52.704;13.814;2023-02-13T03:40:49;6.10;99.90
49242;DHT22;35079;52.704;13.814;2023-02-13T03:43:44;6.10;99.90
49242;DHT22;35079;52.704;13.814;2023-02-13T03:46:12;6.10;99.90
49242;DHT22;35079;52.704;13.814;2023-02-13T03:48:39;6.30;99.90
49242;DHT22;35079;52.704;13.814;2023-02-13T03:54:25;6.00;99.90
49242;DHT22;35079;52.704;13.814;2023-02-13T03:57:13;6.10;99.90
49242;DHT22;35079;52.704;13.814;2023-02-13T04:00:00;6.00;99.90
49242;DHT22;35079;52.704;13.814;2023-02-13T04:02:31;6.00;99.90
49242;DHT22;35079;52.704;13.814;2023-02-13T04:05:18;5.90;99.90
49242;DHT22;35079;52.704;13.814;2023-02-13T04:07:45;6.00;99.90
49242;DHT22;35079;52.704;13.814;2023-02-13T04:10:14;6.00;99.90
49242;DHT22;35079;52.704;13.814;2023-02-13T04:13:06;5.90;99.90
49242;DHT22;35079;52.704;13.814;2023-02-13T04:15:45;5.90;99.90
49242;DHT22;35079;52.704;13.814;2023-02-13T04:18:22;5.90;99.90
49242;DHT22;35079;52.704;13.814;2023-02-13T04:20:49;5.90;99.90
49242;DHT22;35079;52.704;13.814;2023-02-13T04:23:15;5.80;99.90
49242;DHT22;35079;52.704;13.814;2023-02-13T04:25:44;5.80;99.90
49242;DHT22;35079;52.704;13.814;2023-02-13T04:28:10;6.00;99.90
49242;DHT22;35079;52.704;13.814;2023-02-13T04:30:58;5.80;99.90
49242;DHT22;35079;52.704;13.814;2023-02-13T04:33:24;5.90;99.90
49242;DHT22;35079;52.704;13.814;2023-02-13T04:35:49;5.80;99.90
49242;DHT22;35079;52.704;13.814;2023-02-13T04:38:15;5.80;99.90
49242;DHT22;35079;52.704;13.814;2023-02-13T04:40:41;6.00;99.90
49242;DHT22;35079;52.704;13.814;2023-02-13T04:43:06;5.90;99.90
49242;DHT22;35079;52.704;13.814;2023-02-13T04:45:32;5.80;99.90
49242;DHT22;35079;52.704;13.814;2023-02-13T04:47:58;5.80;99.90
49242;DHT22;35079;52.704;13.814;2023-02-13T04:50:24;5.80;99.90
49242;DHT22;35079;52.704;13.814;2023-02-13T04:52:54;5.80;99.90
49242;DHT22;35079;52.704;13.814;2023-02-13T04:55:21;5.80;99.90
49242;DHT22;35079;52.704;13.814;2023-02-13T04:57:47;5.80;99.90
49242;DHT22;35079;52.704;13.814;2023-02-13T05:00:13;5.70;99.90
49242;DHT22;35079;52.704;13.814;2023-02-13T05:02:38;5.70;99.90
49242;DHT22;35079;52.704;13.814;2023-02-13T05:05:04;5.70;99.90
49242;DHT22;35079;52.704;13.814;2023-02-13T05:07:30;5.70;99.90
49242;DHT22;35079;52.704;13.814;2023-02-13T05:09:56;5.70;99.90
49242;DHT22;35079;52.704;13.814;2023-02-13T05:12:21;5.70;99.90
49242;DHT22;35079;52.704;13.814;2023-02-13T05:14:47;5.70;99.90
49242;DHT22;35079;52.704;13.814;2023-02-13T05:17:13;5.90;99.90
49242;DHT22;35079;52.704;13.814;2023-02-13T05:19:39;5.80;99.90
49242;DHT22;35079;52.704;13.814;2023-02-13T05:22:04;5.70;99.90
49242;DHT22;35079;52.704;13.814;2023-02-13T05:24:48;5.60;99.90
49242;DHT22;35079;52.704;13.814;2023-02-13T05:27:14;5.90;99.90
49242;DHT22;35079;52.704;13.814;2023-02-13T05:29:40;5.90;99.90
49242;DHT22;35079;52.704;13.814;2023-02-13T05:32:05;5.70;99.90
49242;DHT22;35079;52.704;13.814;2023-02-13T05:34:31;5.80;99.90
49242;DHT22;35079;52.704;13.814;2023-02-13T05:36:56;5.60;99.90
49242;DHT22;35079;52.704;13.814;2023-02-13T05:39:22;5.60;99.90
49242;DHT22;35079;52.704;13.814;2023-02-13T05:41:48;5.70;99.90
49242;DHT22;35079;52.704;13.814;2023-02-13T05:44:14;5.70;99.90
49242;DHT22;35079;52.704;13.814;2023-02-13T05:46:41;5.70;99.90
49242;DHT22;35079;52.704;13.814;2023-02-13T05:49:08;5.60;99.90
49242;DHT22;35079;52.704;13.814;2023-02-13T05:51:34;5.60;99.90
49242;DHT22;35079;52.704;13.814;2023-02-13T05:54:00;5.60;99.90
49242;DHT22;35079;52.704;13.814;2023-02-13T05:56:25;5.60;99.90
49242;DHT22;35079;52.704;13.814;2023-02-13T05:58:52;5.60;99.90
49242;DHT22;35079;52.704;13.814;2023-02-13T06:01:18;5.60;99.90
49242;DHT22;35079;52.704;13.814;2023-02-13T06:03:44;5.60;99.90
49242;DHT22;35079;52.704;13.814;2023-02-13T06:06:10;5.60;99.90
49242;DHT22;35079;52.704;13.814;2023-02-13T06:08:35;5.60;99.90
49242;DHT22;35079;52.704;13.814;2023-02-13T06:11:01;5.60;99.90
49242;DHT22;35079;52.704;13.814;2023-02-13T06:13:27;5.70;99.90
49242;DHT22;35079;52.704;13.814;2023-02-13T06:15:52;5.50;99.90
49242;DHT22;35079;52.704;13.814;2023-02-13T06:18:18;5.50;99.90
49242;DHT22;35079;52.704;13.814;2023-02-13T06:20:44;5.70;99.90
49242;DHT22;35079;52.704;13.814;2023-02-13T06:23:09;5.50;99.90
49242;DHT22;35079;52.704;13.814;2023-02-13T06:25:36;5.70;99.90
49242;DHT22;35079;52.704;13.814;2023-02-13T06:28:02;5.50;99.90
49242;DHT22;35079;52.704;13.814;2023-02-13T06:30:28;5.60;99.90
49242;DHT22;35079;52.704;13.814;2023-02-13T06:32:54;5.80;99.90
49242;DHT22;35079;52.704;13.814;2023-02-13T06:35:20;5.50;99.90
49242;DHT22;35079;52.704;13.814;2023-02-13T06:37:46;5.50;99.90
49242;DHT22;35079;52.704;13.814;2023-02-13T06:40:14;5.50;99.90
49242;DHT22;35079;52.704;13.814;2023-02-13T06:42:44;5.60;99.90
49242;DHT22;35079;52.704;13.814;2023-02-13T06:45:10;5.50;99.90
49242;DHT22;35079;52.704;13.814;2023-02-13T06:47:40;5.60;99.90
49242;DHT22;35079;52.704;13.814;2023-02-13T06:50:06;5.50;99.90
49242;DHT22;35079;52.704;13.814;2023-02-13T06:52:32;5.50;99.90
49242;DHT22;35079;52.704;13.814;2023-02-13T06:54:57;5.50;99.90
49242;DHT22;35079;52.704;13.814;2023-02-13T06:57:23;5.50;99.90
49242;DHT22;35079;52.704;13.814;2023-02-13T06:59:49;5.60;99.90
49242;DHT22;35079;52.704;13.814;2023-02-13T07:02:14;5.70;99.90
49242;DHT22;35079;52.704;13.814;2023-02-13T07:04:40;5.80;99.90
49242;DHT22;35079;52.704;13.814;2023-02-13T07:07:05;5.60;99.90
49242;DHT22;35079;52.704;13.814;2023-02-13T07:09:31;5.70;99.90
49242;DHT22;35079;52.704;13.814;2023-02-13T07:11:57;5.60;99.90
49242;DHT22;35079;52.704;13.814;2023-02-13T07:14:23;5.60;99.90
49242;DHT22;35079;52.704;13.814;2023-02-13T07:16:48;5.60;99.90
49242;DHT22;35079;52.704;13.814;2023-02-13T07:19:14;5.60;99.90
49242;DHT22;35079;52.704;13.814;2023-02-13T07:21:40;5.70;99.90
49242;DHT22;35079;52.704;13.814;2023-02-13T07:24:05;5.70;99.90
49242;DHT22;35079;52.704;13.814;2023-02-13T07:26:31;5.70;99.90
49242;DHT22;35079;52.704;13.814;2023-02-13T07:28:57;5.70;99.90
49242;DHT22;35079;52.704;13.814;2023-02-13T07:31:22;5.70;99.90
49242;DHT22;35079;52.704;13.814;2023-02-13T07:33:48;5.70;99.90
49242;DHT22;35079;52.704;13.814;2023-02-13T07:36:14;5.70;99.90
49242;DHT22;35079;52.704;13.814;2023-02-13T07:38:40;5.80;99.90
49242;DHT22;35079;52.704;13.814;2023-02-13T07:41:05;5.70;99.90
49242;DHT22;35079;52.704;13.814;2023-02-13T07:43:31;5.90;99.90
49242;DHT22;35079;52.704;13.814;2023-02-13T07:45:58;5.80;99.90
49242;DHT22;35079;52.704;13.814;2023-02-13T07:48:24;6.00;99.90
49242;DHT22;35079;52.704;13.814;2023-02-13T07:50:52;5.70;99.90
49242;DHT22;35079;52.704;13.814;2023-02-13T07:53:18;5.80;99.90
49242;DHT22;35079;52.704;13.814;2023-02-13T07:55:43;5.90;99.90
49242;DHT22;35079;52.704;13.814;2023-02-13T07:58:09;5.80;99.90
49242;DHT22;35079;52.704;13.814;2023-02-13T08:00:35;6.00;99.90
49242;DHT22;35079;52.704;13.814;2023-02-13T08:03:01;6.00;99.90
49242;DHT22;35079;52.704;13.814;2023-02-13T08:05:28;5.90;99.90
49242;DHT22;35079;52.704;13.814;2023-02-13T08:07:55;5.90;99.90
49242;DHT22;35079;52.704;13.814;2023-02-13T08:10:22;6.10;99.90
49242;DHT22;35079;52.704;13.814;2023-02-13T08:13:07;6.10;99.90
49242;DHT22;35079;52.704;13.814;2023-02-13T08:15:33;6.00;99.90
49242;DHT22;35079;52.704;13.814;2023-02-13T08:17:59;6.10;99.90
49242;DHT22;35079;52.704;13.814;2023-02-13T08:20:24;5.90;99.90
49242;DHT22;35079;52.704;13.814;2023-02-13T08:22:50;6.00;99.90
49242;DHT22;35079;52.704;13.814;2023-02-13T08:25:16;6.00;99.90
49242;DHT22;35079;52.704;13.814;2023-02-13T08:27:41;6.00;99.90
49242;DHT22;35079;52.704;13.814;2023-02-13T08:30:08;6.00;99.90
49242;DHT22;35079;52.704;13.814;2023-02-13T08:32:34;6.10;99.90
49242;DHT22;35079;52.704;13.814;2023-02-13T08:34:59;6.20;99.90
49242;DHT22;35079;52.704;13.814;2023-02-13T08:37:25;6.10;99.90
49242;DHT22;35079;52.704;13.814;2023-02-13T08:39:50;6.10;99.90
49242;DHT22;35079;52.704;13.814;2023-02-13T08:42:16;6.10;99.90
49242;DHT22;35079;52.704;13.814;2023-02-13T08:44:42;6.20;99.90
49242;DHT22;35079;52.704;13.814;2023-02-13T08:47:08;6.20;99.90
49242;DHT22;35079;52.704;13.814;2023-02-13T08:49:34;6.30;99.90
49242;DHT22;35079;52.704;13.814;2023-02-13T08:52:00;6.30;99.90
49242;DHT22;35079;52.704;13.814;2023-02-13T08:54:26;6.30;99.90
49242;DHT22;35079;52.704;13.814;2023-02-13T08:56:53;6.30;99.90
49242;DHT22;35079;52.704;13.814;2023-02-13T08:59:18;6.30;99.90
49242;DHT22;35079;52.704;13.814;2023-02-13T09:01:44;6.40;99.90
49242;DHT22;35079;52.704;13.814;2023-02-13T09:04:10;6.40;99.90
49242;DHT22;35079;52.704;13.814;2023-02-13T09:06:36;6.50;99.90
49242;DHT22;35079;52.704;13.814;2023-02-13T09:09:04;6.40;99.90
49242;DHT22;35079;52.704;13.814;2023-02-13T09:11:29;6.50;99.90
49242;DHT22;35079;52.704;13.814;2023-02-13T09:13:55;6.40;99.90
49242;DHT22;35079;52.704;13.814;2023-02-13T09:16:21;6.50;99.90
49242;DHT22;35079;52.704;13.814;2023-02-13T09:18:47;6.50;99.90
49242;DHT22;35079;52.704;13.814;2023-02-13T09:21:13;6.50;99.90
49242;DHT22;35079;52.704;13.814;2023-02-13T09:23:40;6.50;99.90
49242;DHT22;35079;52.704;13.814;2023-02-13T09:26:10;6.50;99.90
49242;DHT22;35079;52.704;13.814;2023-02-13T09:28:37;6.70;99.90
49242;DHT22;35079;52.704;13.814;2023-02-13T09:31:10;6.60;99.90
49242;DHT22;35079;52.704;13.814;2023-02-13T09:33:36;6.60;99.90
49242;DHT22;35079;52.704;13.814;2023-02-13T09:36:07;6.70;99.90
49242;DHT22;35079;52.704;13.814;2023-02-13T09:38:33;6.70;99.90
49242;DHT22;35079;52.704;13.814;2023-02-13T09:41:03;6.80;99.90
49242;DHT22;35079;52.704;13.814;2023-02-13T09:43:33;6.80;99.90
49242;DHT22;35079;52.704;13.814;2023-02-13T09:46:08;6.90;99.90
49242;DHT22;35079;52.704;13.814;2023-02-13T09:48:37;7.00;99.90
49242;DHT22;35079;52.704;13.814;2023-02-13T09:51:04;7.00;99.90
49242;DHT22;35079;52.704;13.814;2023-02-13T09:53:30;7.00;99.90
49242;DHT22;35079;52.704;13.814;2023-02-13T09:56:14;7.10;99.90
49242;DHT22;35079;52.704;13.814;2023-02-13T09:58:47;7.10;99.90
49242;DHT22;35079;52.704;13.814;2023-02-13T10:01:36;7.10;99.90
49242;DHT22;35079;52.704;13.814;2023-02-13T10:04:24;7.00;99.90
49242;DHT22;35079;52.704;13.814;2023-02-13T10:12:21;7.20;99.90
49242;DHT22;35079;52.704;13.814;2023-02-13T10:15:01;7.10;99.90
49242;DHT22;35079;52.704;13.814;2023-02-13T10:17:53;7.20;99.90
49242;DHT22;35079;52.704;13.814;2023-02-13T10:20:44;7.40;99.90
49242;DHT22;35079;52.704;13.814;2023-02-13T10:23:35;7.30;99.90
49242;DHT22;35079;52.704;13.814;2023-02-13T10:26:04;7.30;99.90
49242;DHT22;35079;52.704;13.814;2023-02-13T10:28:38;7.30;99.90
49242;DHT22;35079;52.704;13.814;2023-02-13T10:31:17;7.30;99.90
49242;DHT22;35079;52.704;13.814;2023-02-13T10:33:51;7.60;99.90
49242;DHT22;35079;52.704;13.814;2023-02-13T10:36:26;7.40;99.90
49242;DHT22;35079;52.704;13.814;2023-02-13T10:39:07;7.40;99.90
49242;DHT22;35079;52.704;13.814;2023-02-13T10:41:53;7.50;99.90
49242;DHT22;35079;52.704;13.814;2023-02-13T10:58:17;7.50;99.90
49242;DHT22;35079;52.704;13.814;2023-02-13T11:01:08;7.50;99.90
49242;DHT22;35079;52.704;13.814;2023-02-13T11:03:38;7.50;99.90
49242;DHT22;35079;52.704;13.814;2023-02-13T11:06:07;7.60;99.90
49242;DHT22;35079;52.704;13.814;2023-02-13T11:08:42;7.60;99.90
49242;DHT22;35079;52.704;13.814;2023-02-13T11:11:28;7.80;99.90
49242;DHT22;35079;52.704;13.814;2023-02-13T11:14:25;7.70;99.90
49242;DHT22;35079;52.704;13.814;2023-02-13T11:22:04;7.70;99.90
49242;DHT22;35079;52.704;13.814;2023-02-13T11:24:32;7.70;99.90
49242;DHT22;35079;52.704;13.814;2023-02-13T11:27:07;7.80;99.90
49242;DHT22;35079;52.704;13.814;2023-02-13T11:29:50;7.80;99.90
49242;DHT22;35079;52.704;13.814;2023-02-13T11:32:20;7.60;99.90
49242;DHT22;35079;52.704;13.814;2023-02-13T11:34:47;7.70;99.90
49242;DHT22;35079;52.704;13.814;2023-02-13T11:37:18;7.80;99.90
49242;DHT22;35079;52.704;13.814;2023-02-13T11:39:49;7.70;99.90
49242;DHT22;35079;52.704;13.814;2023-02-13T11:42:33;7.80;99.90
49242;DHT22;35079;52.704;13.814;2023-02-13T11:45:23;7.60;99.90
49242;DHT22;35079;52.704;13.814;2023-02-13T11:47:50;7.60;99.90
49242;DHT22;35079;52.704;13.814;2023-02-13T11:50:26;7.80;99.90
49242;DHT22;35079;52.704;13.814;2023-02-13T11:53:01;7.60;99.90
49242;DHT22;35079;52.704;13.814;2023-02-13T11:55:31;7.60;99.90
49242;DHT22;35079;52.704;13.814;2023-02-13T12:00:32;7.60;99.90
49242;DHT22;35079;52.704;13.814;2023-02-13T12:03:04;7.70;99.90
49242;DHT22;35079;52.704;13.814;2023-02-13T12:06:09;7.80;99.90
49242;DHT22;35079;52.704;13.814;2023-02-13T12:08:41;7.70;99.90
49242;DHT22;35079;52.704;13.814;2023-02-13T12:12:01;7.70;99.90
49242;DHT22;35079;52.704;13.814;2023-02-13T12:14:02;7.90;99.90
49242;DHT22;35079;52.704;13.814;2023-02-13T12:19:02;7.80;99.90
49242;DHT22;35079;52.704;13.814;2023-02-13T12:27:38;7.80;99.90
49242;DHT22;35079;52.704;13.814;2023-02-13T12:39:03;7.50;99.90
49242;DHT22;35079;52.704;13.814;2023-02-13T12:41:53;7.50;99.90
49242;DHT22;35079;52.704;13.814;2023-02-13T12:58:29;7.30;99.90
49242;DHT22;35079;52.704;13.814;2023-02-13T13:14:31;7.10;99.90
49242;DHT22;35079;52.704;13.814;2023-02-13T13:17:20;7.10;99.90
49242;DHT22;35079;52.704;13.814;2023-02-13T13:25:11;7.00;99.90
49242;DHT22;35079;52.704;13.814;2023-02-13T13:27:43;7.10;99.90
49242;DHT22;35079;52.704;13.814;2023-02-13T13:30:19;7.00;99.90
49242;DHT22;35079;52.704;13.814;2023-02-13T13:32:51;7.00;99.90
49242;DHT22;35079;52.704;13.814;2023-02-13T13:35:19;6.90;99.90
49242;DHT22;35079;52.704;13.814;2023-02-13T13:37:53;6.90;99.90
49242;DHT22;35079;52.704;13.814;2023-02-13T13:40:53;7.10;99.90
49242;DHT22;35079;52.704;13.814;2023-02-13T13:43:39;7.00;99.90
49242;DHT22;35079;52.704;13.814;2023-02-13T13:49:28;6.90;99.90
49242;DHT22;35079;52.704;13.814;2023-02-13T13:52:31;7.00;99.90
49242;DHT22;35079;52.704;13.814;2023-02-13T13:54:59;7.10;99.90
49242;DHT22;35079;52.704;13.814;2023-02-13T14:00:27;7.00;99.90
49242;DHT22;35079;52.704;13.814;2023-02-13T14:03:21;7.00;99.90
49242;DHT22;35079;52.704;13.814;2023-02-13T14:06:03;7.10;99.90
49242;DHT22;35079;52.704;13.814;2023-02-13T14:11:31;7.00;99.90
49242;DHT22;35079;52.704;13.814;2023-02-13T14:13:57;6.90;99.90
49242;DHT22;35079;52.704;13.814;2023-02-13T14:16:44;7.20;99.90
49242;DHT22;35079;52.704;13.814;2023-02-13T14:19:37;7.00;99.90
49242;DHT22;35079;52.704;13.814;2023-02-13T14:24:51;6.90;99.90
49242;DHT22;35079;52.704;13.814;2023-02-13T14:27:31;7.00;99.90
49242;DHT22;35079;52.704;13.814;2023-02-13T14:30:00;6.80;99.90
49242;DHT22;35079;52.704;13.814;2023-02-13T14:32:32;6.70;99.90
49242;DHT22;35079;52.704;13.814;2023-02-13T14:37:48;6.80;99.90
49242;DHT22;35079;52.704;13.814;2023-02-13T14:46:06;6.80;99.90
49242;DHT22;35079;52.704;13.814;2023-02-13T14:48:55;6.90;99.90
49242;DHT22;35079;52.704;13.814;2023-02-13T14:51:52;6.80;99.90
49242;DHT22;35079;52.704;13.814;2023-02-13T14:54:33;6.80;99.90
49242;DHT22;35079;52.704;13.814;2023-02-13T14:59:42;6.90;99.90
49242;DHT22;35079;52.704;13.814;2023-02-13T15:02:22;6.80;99.90
49242;DHT22;35079;52.704;13.814;2023-02-13T15:04:56;6.90;99.90
49242;DHT22;35079;52.704;13.814;2023-02-13T15:07:35;6.80;99.90
49242;DHT22;35079;52.704;13.814;2023-02-13T15:13:21;6.80;99.90
49242;DHT22;35079;52.704;13.814;2023-02-13T15:15:56;6.80;99.90
49242;DHT22;35079;52.704;13.814;2023-02-13T15:18:25;6.70;99.90
49242;DHT22;35079;52.704;13.814;2023-02-13T15:20:56;6.80;99.90
49242;DHT22;35079;52.704;13.814;2023-02-13T15:23:28;6.60;99.90
49242;DHT22;35079;52.704;13.814;2023-02-13T15:26:03;6.60;99.90
49242;DHT22;35079;52.704;13.814;2023-02-13T15:28:30;6.60;99.90
49242;DHT22;35079;52.704;13.814;2023-02-13T15:31:18;6.70;99.90
49242;DHT22;35079;52.704;13.814;2023-02-13T15:33:47;6.50;99.90
49242;DHT22;35079;52.704;13.814;2023-02-13T15:36:22;6.70;99.90
49242;DHT22;35079;52.704;13.814;2023-02-13T15:38:58;6.50;99.90
49242;DHT22;35079;52.704;13.814;2023-02-13T15:41:30;6.50;99.90
49242;DHT22;35079;52.704;13.814;2023-02-13T15:43:57;6.50;99.90
49242;DHT22;35079;52.704;13.814;2023-02-13T15:46:26;6.50;99.90
49242;DHT22;35079;52.704;13.814;2023-02-13T15:48:53;6.50;99.90
49242;DHT22;35079;52.704;13.814;2023-02-13T15:51:22;6.40;99.90
49242;DHT22;35079;52.704;13.814;2023-02-13T15:53:58;6.50;99.90
49242;DHT22;35079;52.704;13.814;2023-02-13T15:56:25;6.50;99.90
49242;DHT22;35079;52.704;13.814;2023-02-13T15:58:52;6.50;99.90
49242;DHT22;35079;52.704;13.814;2023-02-13T16:01:18;6.50;99.90
49242;DHT22;35079;52.704;13.814;2023-02-13T16:03:47;6.30;99.90
49242;DHT22;35079;52.704;13.814;2023-02-13T16:06:15;6.30;99.90
49242;DHT22;35079;52.704;13.814;2023-02-13T16:11:17;6.40;99.90
49242;DHT22;35079;52.704;13.814;2023-02-13T16:13:58;6.30;99.90
49242;DHT22;35079;52.704;13.814;2023-02-13T16:16:25;6.20;99.90
49242;DHT22;35079;52.704;13.814;2023-02-13T16:18:51;6.20;99.90
49242;DHT22;35079;52.704;13.814;2023-02-13T16:21:22;6.40;99.90
49242;DHT22;35079;52.704;13.814;2023-02-13T16:23:55;6.20;99.90
49242;DHT22;35079;52.704;13.814;2023-02-13T16:26:22;6.30;99.90
49242;DHT22;35079;52.704;13.814;2023-02-13T16:28:48;6.10;99.90
49242;DHT22;35079;52.704;13.814;2023-02-13T16:31:15;6.20;99.90
49242;DHT22;35079;52.704;13.814;2023-02-13T16:33:42;6.40;99.90
49242;DHT22;35079;52.704;13.814;2023-02-13T16:38:37;6.10;99.90
49242;DHT22;35079;52.704;13.814;2023-02-13T16:41:05;6.10;99.90
49242;DHT22;35079;52.704;13.814;2023-02-13T16:49:01;6.10;99.90
49242;DHT22;35079;52.704;13.814;2023-02-13T16:51:44;6.10;99.90
49242;DHT22;35079;52.704;13.814;2023-02-13T16:56:47;6.20;99.90
49242;DHT22;35079;52.704;13.814;2023-02-13T16:59:37;6.10;99.90
49242;DHT22;35079;52.704;13.814;2023-02-13T17:02:16;6.10;99.90
49242;DHT22;35079;52.704;13.814;2023-02-13T17:07:37;6.10;99.90
49242;DHT22;35079;52.704;13.814;2023-02-13T17:12:42;6.10;99.90
49242;DHT22;35079;52.704;13.814;2023-02-13T17:15:11;6.10;99.90
49242;DHT22;35079;52.704;13.814;2023-02-13T17:17:37;6.00;99.90
49242;DHT22;35079;52.704;13.814;2023-02-13T17:20:03;6.10;99.90
49242;DHT22;35079;52.704;13.814;2023-02-13T17:22:36;6.10;99.90
49242;DHT22;35079;52.704;13.814;2023-02-13T17:25:07;6.00;99.90
49242;DHT22;35079;52.704;13.814;2023-02-13T17:27:33;6.20;99.90
49242;DHT22;35079;52.704;13.814;2023-02-13T17:29:58;6.10;99.90
49242;DHT22;35079;52.704;13.814;2023-02-13T17:32:25;6.10;99.90
49242;DHT22;35079;52.704;13.814;2023-02-13T17:34:51;6.00;99.90
49242;DHT22;35079;52.704;13.814;2023-02-13T17:37:23;5.90;99.90
49242;DHT22;35079;52.704;13.814;2023-02-13T17:39:49;6.10;99.90
49242;DHT22;35079;52.704;13.814;2023-02-13T17:42:24;6.00;99.90
49242;DHT22;35079;52.704;13.814;2023-02-13T17:44:50;6.00;99.90
49242;DHT22;35079;52.704;13.814;2023-02-13T17:47:17;6.00;99.90
49242;DHT22;35079;52.704;13.814;2023-02-13T17:49:43;6.20;99.90
49242;DHT22;35079;52.704;13.814;2023-02-13T17:52:17;6.00;99.90
49242;DHT22;35079;52.704;13.814;2023-02-13T17:54:43;5.90;99.90
49242;DHT22;35079;52.704;13.814;2023-02-13T17:57:10;5.90;99.90
49242;DHT22;35079;52.704;13.814;2023-02-13T17:59:36;6.10;99.90
49242;DHT22;35079;52.704;13.814;2023-02-13T18:02:02;5.80;99.90
49242;DHT22;35079;52.704;13.814;2023-02-13T18:04:27;6.00;99.90
49242;DHT22;35079;52.704;13.814;2023-02-13T18:06:54;5.80;99.90
49242;DHT22;35079;52.704;13.814;2023-02-13T18:09:20;5.80;99.90
49242;DHT22;35079;52.704;13.814;2023-02-13T18:11:47;6.00;99.90
49242;DHT22;35079;52.704;13.814;2023-02-13T18:14:13;5.90;99.90
49242;DHT22;35079;52.704;13.814;2023-02-13T18:16:38;5.90;99.90
49242;DHT22;35079;52.704;13.814;2023-02-13T18:19:04;5.90;99.90
49242;DHT22;35079;52.704;13.814;2023-02-13T18:21:33;5.90;99.90
49242;DHT22;35079;52.704;13.814;2023-02-13T18:23:58;6.00;99.90
49242;DHT22;35079;52.704;13.814;2023-02-13T18:26:24;5.80;99.90
49242;DHT22;35079;52.704;13.814;2023-02-13T18:28:50;5.80;99.90